createdAt,value
2023-03-06T00:08:30.599Z,100056.00
2023-03-06T00:11:34.552Z,100062.00
2023-03-06T00:14:07.442Z,100061.00
2023-03-06T00:17:05.362Z,100052.00
2023-03-06T00:23:28.614Z,100044.00
2023-03-06T00:27:00.850Z,100051.00
2023-03-06T00:33:14.596Z,100043.00
2023-03-06T00:36:28.124Z,100041.00
2023-03-06T00:39:35.596Z,100050.00
2023-03-06T00:44:53.269Z,100037.00
2023-03-06T00:47:20.070Z,100045.00
2023-03-06T00:49:55.998Z,100045.00
2023-03-06T00:52:44.417Z,100035.00
2023-03-06T00:59:01.806Z,100030.00
2023-03-06T01:05:28.852Z,100011.00
2023-03-06T01:08:39.430Z,100016.00
2023-03-06T01:11:49.623Z,100013.00
2023-03-06T01:18:54.038Z,100018.00
2023-03-06T01:32:51.478Z,100007.00
2023-03-06T01:39:33.764Z,100016.00
2023-03-06T01:42:46.377Z,100009.00
2023-03-06T01:56:57.721Z,99996.00
2023-03-06T02:25:10.158Z,99978.00
2023-03-06T02:28:34.287Z,99967.00
2023-03-06T02:31:01.085Z,99948.00
2023-03-06T02:41:27.387Z,99948.00
2023-03-06T02:48:37.940Z,99947.00
2023-03-06T02:51:16.446Z,99948.00
2023-03-06T03:08:39.313Z,99930.00
2023-03-06T03:11:12.449Z,99922.00
2023-03-06T03:14:32.176Z,99919.00
2023-03-06T03:20:58.869Z,99917.00
2023-03-06T03:27:47.727Z,99907.00
2023-03-06T03:34:39.475Z,99909.00
2023-03-06T03:37:49.885Z,99905.00
2023-03-06T03:40:41.573Z,99902.00
2023-03-06T03:43:08.383Z,99892.00
2023-03-06T03:45:35.220Z,99892.00
2023-03-06T03:48:02.059Z,99886.00
2023-03-06T03:50:28.893Z,99887.00
2023-03-06T03:52:55.709Z,99897.00
2023-03-06T03:55:22.561Z,99892.00
2023-03-06T03:57:49.425Z,99880.00
2023-03-06T04:00:16.971Z,99878.00
2023-03-06T04:02:44.720Z,99883.00
2023-03-06T04:05:13.100Z,99878.00
2023-03-06T04:07:40.759Z,99875.00
2023-03-06T04:10:09.379Z,99865.00
2023-03-06T04:12:36.856Z,99871.00
2023-03-06T04:15:05.729Z,99869.00
2023-03-06T04:17:34.895Z,99867.00
2023-03-06T04:20:02.648Z,99873.00
2023-03-06T04:22:29.556Z,99879.00
2023-03-06T04:24:56.415Z,99875.00
2023-03-06T04:27:23.256Z,99872.00
2023-03-06T04:29:50.183Z,99871.00
2023-03-06T04:32:17.571Z,99875.00
2023-03-06T04:34:45.507Z,99864.00
2023-03-06T04:37:23.851Z,99864.00
2023-03-06T04:39:50.977Z,99871.00
2023-03-06T04:42:18.599Z,99866.00
2023-03-06T04:44:45.631Z,99868.00
2023-03-06T04:47:13.162Z,99863.00
2023-03-06T04:49:40.038Z,99869.00
2023-03-06T04:52:07.151Z,99870.00
2023-03-06T04:54:33.993Z,99863.00
2023-03-06T04:57:00.842Z,99847.00
2023-03-06T04:59:27.732Z,99850.00
2023-03-06T05:01:54.842Z,99850.00
2023-03-06T05:04:21.699Z,99845.00
2023-03-06T05:06:48.606Z,99861.00
2023-03-06T05:09:15.444Z,99854.00
2023-03-06T05:11:42.240Z,99851.00
2023-03-06T05:14:09.125Z,99851.00
2023-03-06T05:16:36.046Z,99841.00
2023-03-06T05:19:03.384Z,99853.00
2023-03-06T05:21:30.547Z,99852.00
2023-03-06T05:23:57.349Z,99841.00
2023-03-06T05:26:24.645Z,99850.00
2023-03-06T05:28:51.508Z,99849.00
2023-03-06T05:31:18.431Z,99853.00
2023-03-06T05:33:45.275Z,99844.00
2023-03-06T05:36:12.215Z,99845.00
2023-03-06T05:38:39.028Z,99839.00
2023-03-06T05:41:05.930Z,99841.00
2023-03-06T05:43:33.028Z,99844.00
2023-03-06T05:46:02.163Z,99844.00
2023-03-06T05:48:29.071Z,99843.00
2023-03-06T05:50:59.235Z,99828.00
2023-03-06T05:53:26.881Z,99837.00
2023-03-06T05:56:05.283Z,99835.00
2023-03-06T05:58:33.928Z,99826.00
2023-03-06T06:01:01.121Z,99823.00
2023-03-06T06:03:28.009Z,99825.00
2023-03-06T06:05:57.890Z,99826.00
2023-03-06T06:08:24.783Z,99831.00
2023-03-06T06:10:53.404Z,99830.00
2023-03-06T06:13:20.354Z,99826.00
2023-03-06T06:15:47.197Z,99840.00
2023-03-06T08:07:13.630Z,99900.00
2023-03-06T08:09:40.452Z,99907.00
2023-03-06T08:12:07.551Z,99911.00
2023-03-06T08:14:35.220Z,99921.00
2023-03-06T08:17:02.140Z,99924.00
2023-03-06T08:19:28.904Z,99930.00
2023-03-06T08:21:56.330Z,99930.00
2023-03-06T08:24:23.114Z,99935.00
2023-03-06T08:26:49.978Z,99936.00
2023-03-06T08:29:16.835Z,99946.00
2023-03-06T08:31:46.129Z,99940.00
2023-03-06T08:34:15.857Z,99948.00
2023-03-06T08:36:42.824Z,99947.00
2023-03-06T08:39:10.169Z,99956.00
2023-03-06T08:41:37.917Z,99960.00
2023-03-06T08:44:05.014Z,99968.00
2023-03-06T08:46:32.985Z,99974.00
2023-03-06T08:48:59.833Z,99981.00
2023-03-06T08:51:27.943Z,99973.00
2023-03-06T08:53:55.336Z,99978.00
2023-03-06T08:56:25.174Z,99993.00
2023-03-06T08:58:53.529Z,100007.00
2023-03-06T09:01:25.794Z,100007.00
2023-03-06T09:03:57.474Z,99987.00
2023-03-06T09:06:27.340Z,99993.00
2023-03-06T09:08:54.514Z,100003.00
2023-03-06T09:11:22.911Z,99999.00
2023-03-06T09:13:49.945Z,99997.00
2023-03-06T09:16:16.854Z,100000.00
2023-03-06T09:18:50.906Z,100013.00
2023-03-06T09:21:17.676Z,100019.00
2023-03-06T09:23:45.283Z,100019.00
2023-03-06T09:26:12.641Z,100039.00
2023-03-06T09:28:40.414Z,100047.00
2023-03-06T09:31:12.332Z,100026.00
2023-03-06T09:33:39.633Z,100012.00
2023-03-06T09:36:07.901Z,100031.00
2023-03-06T09:38:34.886Z,100028.00
2023-03-06T09:41:24.657Z,100050.00
2023-03-06T09:43:54.436Z,100032.00
2023-03-06T09:46:49.131Z,100054.00
2023-03-06T09:49:49.485Z,100039.00
2023-03-06T09:52:31.411Z,100013.00
2023-03-06T09:55:19.033Z,100030.00
2023-03-06T09:57:58.653Z,100026.00
2023-03-06T10:00:50.956Z,100031.00
2023-03-06T10:03:48.509Z,100030.00
2023-03-06T10:06:26.452Z,100023.00
2023-03-06T10:09:16.586Z,100053.00
2023-03-06T10:11:52.381Z,100063.00
2023-03-06T10:14:40.274Z,100066.00
2023-03-06T10:17:16.310Z,100068.00
2023-03-06T10:19:43.401Z,100059.00
2023-03-06T10:22:35.041Z,100056.00
2023-03-06T10:25:28.115Z,100079.00
2023-03-06T10:28:17.540Z,100085.00
2023-03-06T10:31:08.018Z,100078.00
2023-03-06T10:33:51.719Z,100074.00
2023-03-06T10:36:19.862Z,100060.00
2023-03-06T10:38:48.603Z,100052.00
2023-03-06T10:41:23.112Z,100061.00
2023-03-06T10:44:05.293Z,100060.00
2023-03-06T10:46:46.030Z,100062.00
2023-03-06T10:49:27.127Z,100081.00
2023-03-06T10:52:06.744Z,100083.00
2023-03-06T10:54:39.155Z,100091.00
2023-03-06T10:57:29.442Z,100092.00
2023-03-06T10:59:58.707Z,100091.00
2023-03-06T11:02:31.044Z,100087.00
2023-03-06T11:05:00.408Z,100068.00
2023-03-06T11:07:29.579Z,100055.00
2023-03-06T11:10:07.910Z,100068.00
2023-03-06T11:12:39.710Z,100086.00
2023-03-06T11:15:06.476Z,100100.00
2023-03-06T11:17:35.983Z,100082.00
2023-03-06T11:20:15.057Z,100083.00
2023-03-06T11:22:49.045Z,100092.00
2023-03-06T11:25:18.026Z,100105.00
2023-03-06T11:27:47.043Z,100112.00
2023-03-06T11:30:22.322Z,100103.00
2023-03-06T11:32:57.816Z,100090.00
2023-03-06T11:36:05.429Z,100097.00
2023-03-06T11:38:49.704Z,100069.00
2023-03-06T11:41:30.868Z,100087.00
2023-03-06T11:44:15.317Z,100096.00
2023-03-06T11:46:48.689Z,100096.00
2023-03-06T11:49:33.361Z,100090.00
2023-03-06T11:52:05.522Z,100088.00
2023-03-06T11:54:33.750Z,100094.00
2023-03-06T11:57:13.250Z,100073.00
2023-03-06T12:00:05.092Z,100067.00
2023-03-06T12:02:54.981Z,100077.00
2023-03-06T12:05:51.967Z,100102.00
2023-03-06T12:08:30.443Z,100093.00
2023-03-06T12:11:09.696Z,100063.00
2023-03-06T12:13:50.114Z,100067.00
2023-03-06T12:16:42.579Z,100068.00
2023-03-06T12:19:31.749Z,100061.00
2023-03-06T12:22:16.785Z,100054.00
2023-03-06T12:25:05.116Z,100064.00
2023-03-06T12:27:38.190Z,100032.00
2023-03-06T12:30:29.678Z,100057.00
2023-03-06T12:33:26.410Z,100034.00
2023-03-06T12:36:31.115Z,100061.00
2023-03-06T12:39:16.582Z,100028.00
2023-03-06T12:42:04.862Z,100025.00
2023-03-06T12:44:56.085Z,100021.00
2023-03-06T12:47:25.642Z,100035.00
2023-03-06T12:49:59.259Z,100014.00
2023-03-06T12:52:30.689Z,100010.00
2023-03-06T12:55:04.356Z,99987.00
2023-03-06T12:57:31.273Z,99989.00
2023-03-06T12:59:58.165Z,99988.00
2023-03-06T13:02:43.003Z,99994.00
2023-03-06T13:05:30.536Z,99992.00
2023-03-06T13:07:57.419Z,99995.00
2023-03-06T13:10:35.886Z,99968.00
2023-03-06T13:13:41.485Z,99969.00
2023-03-06T13:16:34.003Z,99974.00
2023-03-06T13:19:00.962Z,99966.00
2023-03-06T13:21:58.994Z,99967.00
2023-03-06T13:24:37.570Z,99985.00
2023-03-06T13:27:05.959Z,99975.00
2023-03-06T13:29:35.827Z,99968.00
2023-03-06T13:32:02.741Z,99968.00
2023-03-06T13:34:43.519Z,99941.00
2023-03-06T13:37:28.179Z,99951.00
2023-03-06T13:39:54.984Z,99928.00
2023-03-06T13:42:39.697Z,99921.00
2023-03-06T13:45:08.008Z,99950.00
2023-03-06T13:48:33.661Z,99971.00
2023-03-06T13:50:46.271Z,99953.00
2023-03-06T13:53:21.482Z,99962.00
2023-03-06T13:56:04.344Z,99948.00
2023-03-06T13:58:41.493Z,99969.00
2023-03-06T14:01:23.050Z,99959.00
2023-03-06T14:04:14.756Z,99960.00
2023-03-06T14:06:51.976Z,99963.00
2023-03-06T14:09:26.904Z,99957.00
2023-03-06T14:12:07.859Z,99942.00
2023-03-06T14:14:41.755Z,99944.00
2023-03-06T14:17:18.111Z,99953.00
2023-03-06T14:19:44.969Z,99950.00
2023-03-06T14:22:16.602Z,99950.00
2023-03-06T14:24:51.720Z,99936.00
2023-03-06T14:27:19.278Z,99936.00
2023-03-06T14:29:48.701Z,99927.00
2023-03-06T14:32:21.634Z,99935.00
2023-03-06T14:34:48.497Z,99935.00
2023-03-06T14:37:21.536Z,99933.00
2023-03-06T14:39:49.149Z,99924.00
2023-03-06T14:42:27.567Z,99913.00
2023-03-06T14:45:02.471Z,99905.00
2023-03-06T14:47:36.692Z,99921.00
2023-03-06T14:50:23.483Z,99921.00
2023-03-06T14:53:04.796Z,99923.00
2023-03-06T14:55:34.973Z,99909.00
2023-03-06T14:58:14.601Z,99895.00
2023-03-06T15:00:44.264Z,99884.00
2023-03-06T15:03:21.003Z,99883.00
2023-03-06T15:05:49.563Z,99867.00
2023-03-06T15:08:21.082Z,99867.00
2023-03-06T15:11:00.371Z,99866.00
2023-03-06T15:13:29.424Z,99895.00
2023-03-06T15:16:01.753Z,99885.00
2023-03-06T15:18:35.272Z,99885.00
2023-03-06T15:21:32.357Z,99889.00
2023-03-06T15:23:59.717Z,99868.00
2023-03-06T15:26:33.340Z,99865.00
2023-03-06T15:29:10.324Z,99872.00
2023-03-06T15:31:46.890Z,99852.00
2023-03-06T15:34:23.715Z,99860.00
2023-03-06T15:36:54.312Z,99858.00
2023-03-06T15:39:38.919Z,99842.00
2023-03-06T15:42:20.816Z,99828.00
2023-03-06T15:44:55.779Z,99824.00
2023-03-06T15:47:23.006Z,99809.00
2023-03-06T15:49:52.593Z,99829.00
2023-03-06T15:52:20.987Z,99812.00
2023-03-06T15:54:48.619Z,99804.00
2023-03-06T15:57:26.879Z,99807.00
2023-03-06T15:59:54.278Z,99797.00
2023-03-06T16:02:22.487Z,99795.00
2023-03-06T16:04:49.942Z,99801.00
2023-03-06T16:07:17.160Z,99788.00
2023-03-06T16:09:44.354Z,99796.00
2023-03-06T16:12:18.094Z,99789.00
2023-03-06T16:14:47.364Z,99791.00
2023-03-06T16:17:17.445Z,99787.00
2023-03-06T16:19:44.437Z,99777.00
2023-03-06T16:22:11.512Z,99767.00
2023-03-06T16:24:38.497Z,99762.00
2023-03-06T16:27:05.458Z,99763.00
2023-03-06T16:29:32.726Z,99748.00
2023-03-06T16:32:01.761Z,99756.00
2023-03-06T16:34:28.842Z,99739.00
2023-03-06T16:36:55.961Z,99744.00
2023-03-06T16:39:23.925Z,99739.00
2023-03-06T16:41:50.868Z,99735.00
2023-03-06T16:44:17.816Z,99731.00
2023-03-06T16:46:47.061Z,99753.00
2023-03-06T16:49:22.604Z,99731.00
2023-03-06T16:51:50.082Z,99731.00
2023-03-06T16:54:16.996Z,99742.00
2023-03-06T16:56:44.329Z,99720.00
2023-03-06T16:59:11.841Z,99735.00
2023-03-06T17:01:40.602Z,99743.00
2023-03-06T17:04:07.602Z,99745.00
2023-03-06T17:06:34.537Z,99739.00
2023-03-06T17:11:31.060Z,99745.00
2023-03-06T17:13:57.899Z,99730.00
2023-03-06T17:16:24.661Z,99727.00
2023-03-06T17:18:51.653Z,99718.00
2023-03-06T17:21:18.443Z,99731.00
2023-03-06T17:23:45.766Z,99728.00
2023-03-06T17:26:20.461Z,99726.00
2023-03-06T17:28:47.629Z,99719.00
2023-03-06T17:31:23.036Z,99729.00
2023-03-06T17:33:51.411Z,99728.00
2023-03-06T17:36:19.268Z,99718.00
2023-03-06T17:38:46.208Z,99715.00
2023-03-06T17:41:13.191Z,99711.00
2023-03-06T17:43:41.011Z,99715.00
2023-03-06T17:46:10.112Z,99714.00
2023-03-06T17:48:37.031Z,99696.00
2023-03-06T17:51:04.623Z,99694.00
2023-03-06T17:53:31.663Z,99692.00
2023-03-06T17:55:58.557Z,99685.00
2023-03-06T17:58:26.212Z,99685.00
2023-03-06T18:00:53.156Z,99680.00
2023-03-06T18:03:19.994Z,99688.00
2023-03-06T18:05:46.752Z,99685.00
2023-03-06T18:08:13.613Z,99679.00
2023-03-06T18:10:41.339Z,99674.00
2023-03-06T18:13:08.554Z,99674.00
2023-03-06T18:15:39.479Z,99679.00
2023-03-06T18:18:06.775Z,99668.00
2023-03-06T18:20:33.926Z,99665.00
2023-03-06T18:23:03.843Z,99663.00
2023-03-06T18:25:32.345Z,99664.00
2023-03-06T18:27:59.239Z,99648.00
2023-03-06T18:30:26.024Z,99649.00
2023-03-06T18:32:53.426Z,99640.00
2023-03-06T18:35:20.729Z,99634.00
2023-03-06T18:37:47.484Z,99644.00
2023-03-06T18:40:14.517Z,99637.00
2023-03-06T18:42:43.188Z,99642.00
2023-03-06T18:45:11.437Z,99639.00
2023-03-06T18:47:39.468Z,99631.00
2023-03-06T18:50:06.760Z,99624.00
2023-03-06T18:52:34.856Z,99602.00
2023-03-06T18:55:01.746Z,99597.00
2023-03-06T18:57:30.336Z,99600.00
2023-03-06T18:59:57.290Z,99592.00
2023-03-06T19:02:26.986Z,99592.00
2023-03-06T19:04:54.526Z,99586.00
2023-03-06T19:07:21.254Z,99579.00
2023-03-06T19:09:48.991Z,99571.00
2023-03-06T19:12:17.458Z,99570.00
2023-03-06T19:14:44.496Z,99580.00
2023-03-06T19:17:11.330Z,99579.00
2023-03-06T19:19:38.351Z,99578.00
2023-03-06T19:22:05.101Z,99563.00
2023-03-06T19:24:31.938Z,99574.00
2023-03-06T19:26:58.663Z,99564.00
2023-03-06T19:29:25.742Z,99545.00
2023-03-06T19:31:52.563Z,99568.00
2023-03-06T19:34:19.354Z,99540.00
2023-03-06T19:36:46.197Z,99535.00
2023-03-06T19:39:13.050Z,99539.00
2023-03-06T19:41:40.058Z,99532.00
2023-03-06T19:44:06.854Z,99527.00
2023-03-06T19:46:34.535Z,99525.00
2023-03-06T19:49:03.183Z,99511.00
2023-03-06T19:51:29.932Z,99515.00
2023-03-06T19:53:57.567Z,99524.00
2023-03-06T19:56:26.756Z,99514.00
2023-03-06T19:58:53.947Z,99508.00
2023-03-06T20:01:22.866Z,99497.00
2023-03-06T20:03:50.676Z,99491.00
2023-03-06T20:06:18.966Z,99490.00
2023-03-06T20:08:47.162Z,99474.00
2023-03-06T20:11:26.020Z,99472.00
2023-03-06T20:13:53.628Z,99465.00
2023-03-06T20:16:20.634Z,99448.00
2023-03-06T20:18:47.617Z,99457.00
2023-03-06T20:21:15.221Z,99434.00
2023-03-06T20:23:42.534Z,99428.00
2023-03-06T20:26:12.083Z,99444.00
2023-03-06T20:28:39.961Z,99415.00
2023-03-06T20:31:13.361Z,99418.00
2023-03-06T20:33:40.164Z,99425.00
2023-03-06T20:36:17.389Z,99424.00
2023-03-06T20:38:44.745Z,99424.00
2023-03-06T20:41:16.436Z,99423.00
2023-03-06T20:43:43.539Z,99423.00
2023-03-06T20:46:11.200Z,99421.00
2023-03-06T20:48:38.859Z,99420.00
2023-03-06T20:51:07.993Z,99423.00
2023-03-06T20:53:37.557Z,99391.00
2023-03-06T20:56:05.002Z,99396.00
2023-03-06T20:58:32.542Z,99388.00
2023-03-06T21:01:01.389Z,99392.00
2023-03-06T21:03:29.648Z,99397.00
2023-03-06T21:05:56.508Z,99382.00
2023-03-06T21:08:23.551Z,99379.00
2023-03-06T21:10:50.844Z,99362.00
2023-03-06T21:13:17.598Z,99366.00
2023-03-06T21:15:45.617Z,99358.00
2023-03-06T21:18:13.070Z,99358.00
2023-03-06T21:20:40.578Z,99365.00
2023-03-06T21:23:07.433Z,99345.00
2023-03-06T21:25:34.584Z,99338.00
2023-03-06T21:28:01.357Z,99336.00
2023-03-06T21:30:28.618Z,99334.00
2023-03-06T21:32:55.676Z,99322.00
2023-03-06T21:35:22.505Z,99337.00
2023-03-06T21:37:49.217Z,99319.00
2023-03-06T21:40:16.015Z,99312.00
2023-03-06T21:42:42.768Z,99307.00
2023-03-06T21:45:10.081Z,99307.00
2023-03-06T21:47:38.364Z,99296.00
2023-03-06T21:50:06.262Z,99310.00
2023-03-06T21:52:33.001Z,99289.00
2023-03-06T21:54:59.781Z,99288.00
2023-03-06T21:57:26.564Z,99280.00
2023-03-06T21:59:53.323Z,99271.00
2023-03-06T22:02:21.159Z,99279.00
2023-03-06T22:04:52.614Z,99271.00
2023-03-06T22:07:20.204Z,99260.00
2023-03-06T22:09:47.344Z,99248.00
2023-03-06T22:12:14.442Z,99239.00
2023-03-06T22:14:43.563Z,99249.00
2023-03-06T22:17:10.476Z,99237.00
2023-03-06T22:19:37.240Z,99236.00
2023-03-06T22:22:04.302Z,99227.00
2023-03-06T22:24:33.838Z,99232.00
2023-03-06T22:27:00.634Z,99223.00
2023-03-06T22:29:27.391Z,99218.00
2023-03-06T22:31:54.158Z,99213.00
2023-03-06T22:34:20.977Z,99207.00
2023-03-06T22:36:48.174Z,99216.00
2023-03-06T22:39:15.000Z,99209.00
2023-03-06T22:41:41.725Z,99188.00
2023-03-06T22:44:14.283Z,99188.00
2023-03-06T22:46:41.612Z,99179.00
2023-03-06T22:49:10.784Z,99184.00
2023-03-06T22:51:37.976Z,99178.00
2023-03-06T22:54:05.801Z,99177.00
2023-03-06T22:56:32.954Z,99171.00
2023-03-06T22:59:00.039Z,99152.00
2023-03-06T23:01:29.309Z,99156.00
2023-03-06T23:03:58.475Z,99150.00
2023-03-06T23:06:36.754Z,99130.00
2023-03-06T23:09:16.573Z,99124.00
2023-03-06T23:11:43.401Z,99103.00
2023-03-06T23:14:13.962Z,99101.00
2023-03-06T23:16:40.768Z,99098.00
2023-03-06T23:19:07.580Z,99093.00
2023-03-06T23:24:04.358Z,99062.00
2023-03-06T23:26:31.856Z,99047.00
2023-03-06T23:28:58.675Z,99018.00
2023-03-06T23:31:30.277Z,99005.00
2023-03-06T23:33:58.443Z,98988.00
2023-03-06T23:36:25.337Z,98975.00
2023-03-06T23:38:52.160Z,98973.00
2023-03-06T23:41:20.290Z,98964.00
2023-03-06T23:43:47.885Z,98959.00
2023-03-06T23:46:15.172Z,98951.00
2023-03-06T23:48:42.527Z,98939.00
2023-03-06T23:51:15.501Z,98931.00
2023-03-06T23:53:43.225Z,98925.00
2023-03-06T23:56:10.576Z,98912.00
2023-03-06T23:58:37.641Z,98896.00
